Time;durP1;ratioP1;P1;durP2;ratioP2;P2;SDS_P1;SDS_P2;PMS_P1;PMS_P2;Temp;Humidity;BMP_temperature;BMP_pressure;BME280_temperature;BME280_humidity;BME280_pressure;Samples;Min_cycle;Max_cycle;Signal;HPM_P1;HPM_P2
2022/09/01 00:00:12;;;;;;;1.50;0.77;;;;;;;15.86;100.00;102430.84;4977510;28;20041;-78
2022/09/01 00:02:41;;;;;;;1.00;1.00;;;;;;;15.83;100.00;102429.06;5010527;28;20045;-78
2022/09/01 00:05:11;;;;;;;2.22;0.80;;;;;;;15.81;100.00;102430.84;4986677;28;20514;-78
2022/09/01 00:07:40;;;;;;;0.80;0.80;;;;;;;15.80;100.00;102426.38;5020096;28;20048;-77
2022/09/01 00:10:15;;;;;;;2.17;0.80;;;;;;;15.78;100.00;102425.50;4997164;28;20418;-78
2022/09/01 00:12:44;;;;;;;1.02;0.70;;;;;;;15.77;100.00;102429.03;5027233;28;20064;-77
2022/09/01 00:15:13;;;;;;;1.15;0.80;;;;;;;15.74;100.00;102427.25;4979029;28;20056;-79
2022/09/01 00:17:53;;;;;;;1.45;0.98;;;;;;;15.74;100.00;102421.91;5013085;28;20041;-78
2022/09/01 00:20:21;;;;;;;0.68;0.68;;;;;;;15.73;100.00;102420.16;5005313;28;20151;-78
2022/09/01 00:22:50;;;;;;;0.80;0.80;;;;;;;15.72;100.00;102425.44;4998391;28;20050;-78
2022/09/01 00:25:19;;;;;;;1.42;0.90;;;;;;;15.72;100.00;102422.78;5010820;28;20068;-78
2022/09/01 00:27:48;;;;;;;0.82;0.80;;;;;;;15.73;100.00;102424.56;5009428;28;20057;-78
2022/09/01 00:30:18;;;;;;;2.50;0.70;;;;;;;15.73;100.00;102421.91;4975492;28;20318;-78
2022/09/01 00:32:46;;;;;;;1.00;0.80;;;;;;;15.73;100.00;102430.78;4996172;28;20045;-78
2022/09/01 00:35:17;;;;;;;2.08;0.88;;;;;;;15.73;100.00;102424.56;5016124;28;20041;-77
2022/09/01 00:37:46;;;;;;;;;;;;;;;15.73;100.00;102424.56;5010040;28;20044;-77
2022/09/01 00:40:16;;;;;;;0.93;0.93;;;;;;;15.73;100.00;102429.88;4993227;28;19928;-78
2022/09/01 00:42:45;;;;;;;1.60;0.70;;;;;;;15.71;100.00;102423.66;5026836;28;20045;-77
2022/09/01 00:45:14;;;;;;;2.47;0.77;;;;;;;15.70;100.00;102428.06;5005775;28;20050;-79
2022/09/01 00:47:43;;;;;;;1.00;0.88;;;;;;;15.70;100.00;102424.53;4971621;28;20041;-77
2022/09/01 00:50:15;;;;;;;0.80;0.80;;;;;;;15.69;100.00;102422.72;5015510;28;20053;-78
2022/09/01 00:52:49;;;;;;;2.00;0.90;;;;;;;15.68;100.00;102423.63;5002446;28;20426;-78
2022/09/01 00:55:24;;;;;;;0.73;0.73;;;;;;;15.67;100.00;102424.50;4989679;28;20139;-79
2022/09/01 00:57:54;;;;;;;1.40;0.70;;;;;;;15.63;100.00;102426.25;5010597;28;20045;-78
2022/09/01 01:00:27;;;;;;;1.75;1.23;;;;;;;15.63;100.00;102418.25;5006120;28;20530;-78
2022/09/01 01:02:56;;;;;;;0.70;0.70;;;;;;;15.61;100.00;102414.72;4994502;28;20057;-78
2022/09/01 01:05:32;;;;;;;0.98;0.95;;;;;;;15.60;100.00;102415.59;4991052;28;20053;-78
2022/09/01 01:08:03;;;;;;;2.63;1.20;;;;;;;15.58;100.00;102420.03;5008076;28;20053;-78
2022/09/01 01:10:35;;;;;;;0.63;0.63;;;;;;;15.57;100.00;102419.09;4999587;28;20290;-79
2022/09/01 01:13:14;;;;;;;1.20;0.80;;;;;;;15.56;100.00;102411.16;4983847;28;20038;-81
2022/09/01 01:15:43;;;;;;;0.80;0.80;;;;;;;15.56;100.00;102405.84;5007226;28;20399;-78
2022/09/01 01:18:14;;;;;;;0.60;0.60;;;;;;;15.56;100.00;102413.81;4958375;28;20495;-80
2022/09/01 01:24:05;;;;;;;1.33;0.80;;;;;;;15.55;100.00;102404.94;5009119;28;20391;-77
2022/09/01 01:26:34;;;;;;;3.60;1.02;;;;;;;15.55;100.00;102414.69;4987801;28;23164;-78
2022/09/01 01:29:02;;;;;;;1.00;0.88;;;;;;;15.55;100.00;102404.03;4984972;28;20057;-78
2022/09/01 01:31:31;;;;;;;1.00;1.00;;;;;;;15.55;100.00;102396.06;4998712;28;20061;-78
2022/09/01 01:34:00;;;;;;;0.73;0.73;;;;;;;15.56;100.00;102408.50;4977581;28;20068;-79
2022/09/01 01:36:35;;;;;;;0.90;0.90;;;;;;;15.56;100.00;102397.88;4971382;28;20335;-78
2022/09/01 01:39:17;;;;;;;0.70;0.70;;;;;;;15.57;100.00;102400.50;5012347;28;20288;-78
2022/09/01 01:41:48;;;;;;;0.77;0.77;;;;;;;15.57;100.00;102405.81;4985448;28;20052;-78
2022/09/01 01:44:23;;;;;;;1.30;0.80;;;;;;;15.58;100.00;102402.31;5013292;28;20033;-79
2022/09/01 01:46:54;;;;;;;1.05;0.75;;;;;;;15.58;100.00;102409.41;5008476;28;20378;-78
2022/09/01 01:49:27;;;;;;;0.85;0.85;;;;;;;15.58;100.00;102398.75;4959026;28;20070;-78
2022/09/01 01:52:00;;;;;;;1.42;0.93;;;;;;;15.58;100.00;102399.66;5006837;28;20407;-77
2022/09/01 01:54:31;;;;;;;1.02;0.85;;;;;;;15.58;100.00;102404.97;4974819;28;20353;-78
2022/09/01 01:57:03;;;;;;;1.10;0.90;;;;;;;15.57;100.00;102407.59;4991151;28;20037;-79
2022/09/01 01:59:32;;;;;;;0.90;0.90;;;;;;;15.56;100.00;102401.41;4961575;28;20072;-78
2022/09/01 02:02:02;;;;;;;0.90;0.80;;;;;;;15.55;100.00;102402.28;4983047;28;20052;-78
2022/09/01 02:04:33;;;;;;;1.20;1.10;;;;;;;15.55;100.00;102404.03;4991612;28;20041;-78
2022/09/01 02:07:12;;;;;;;1.95;0.75;;;;;;;15.54;100.00;102399.63;5006186;28;20045;-78
2022/09/01 02:09:44;;;;;;;0.90;0.90;;;;;;;15.53;100.00;102398.72;4975421;28;20418;-77
2022/09/01 02:12:18;;;;;;;0.70;0.70;;;;;;;15.54;100.00;102407.59;4985171;28;20049;-78
2022/09/01 02:14:48;;;;;;;0.70;0.70;;;;;;;15.52;100.00;102412.91;4962590;28;20529;-80
2022/09/01 02:17:17;;;;;;;0.90;0.90;;;;;;;15.50;100.00;102408.44;4986855;28;20029;-78
2022/09/01 02:19:47;;;;;;;2.30;0.80;;;;;;;15.49;100.00;102410.19;4977667;28;20037;-78
2022/09/01 02:22:18;;;;;;;0.98;0.98;;;;;;;15.47;100.00;102417.28;5005467;28;20041;-78
2022/09/01 02:24:48;;;;;;;0.77;0.77;;;;;;;15.46;100.00;102417.25;4985308;28;20045;-77
2022/09/01 02:27:22;;;;;;;0.75;0.70;;;;;;;15.45;100.00;102408.41;5002327;28;20064;-77
2022/09/01 02:29:54;;;;;;;1.15;0.80;;;;;;;15.46;100.00;102403.97;5005249;28;20525;-77
2022/09/01 02:32:25;;;;;;;0.75;0.75;;;;;;;15.45;100.00;102396.91;4990645;28;20049;-78
2022/09/01 02:34:55;;;;;;;1.10;1.00;;;;;;;15.43;100.00;102398.66;4979252;28;20053;-79
2022/09/01 02:37:24;;;;;;;3.92;1.13;;;;;;;15.42;100.00;102395.09;4985857;28;20422;-78
2022/09/01 02:39:56;;;;;;;1.63;1.00;;;;;;;15.43;100.00;102399.53;5023489;28;20057;-78
2022/09/01 02:42:28;;;;;;;1.75;0.98;;;;;;;15.43;100.00;102403.97;4989206;28;20178;-77
2022/09/01 02:44:57;;;;;;;0.90;0.90;;;;;;;15.43;100.00;102394.22;4982560;28;20422;-78
2022/09/01 02:47:27;;;;;;;2.15;1.20;;;;;;;15.44;100.00;102397.75;4970076;28;20049;-78
2022/09/01 02:49:59;;;;;;;1.55;0.88;;;;;;;15.44;100.00;102400.41;5002036;28;20041;-78
2022/09/01 02:52:36;;;;;;;1.02;0.93;;;;;;;15.44;100.00;102398.63;4987869;28;20048;-78
2022/09/01 02:55:06;;;;;;;0.90;0.85;;;;;;;15.45;100.00;102389.81;5022300;28;20541;-79
2022/09/01 02:57:35;;;;;;;0.82;0.82;;;;;;;15.44;100.00;102393.31;4991983;28;20280;-77
2022/09/01 03:00:19;;;;;;;1.20;1.10;;;;;;;15.45;100.00;102394.25;4968235;28;20033;-78
2022/09/01 03:02:51;;;;;;;1.70;1.17;;;;;;;15.43;100.00;102391.56;5011826;28;20041;-78
2022/09/01 03:05:25;;;;;;;0.90;0.90;;;;;;;15.45;100.00;102386.28;4975779;28;20263;-78
2022/09/01 03:08:00;;;;;;;1.40;0.80;;;;;;;15.45;100.00;102384.50;4978253;28;20034;-78
2022/09/01 03:10:40;;;;;;;3.70;0.90;;;;;;;15.47;100.00;102385.41;5012198;28;20068;-78
2022/09/01 03:13:14;;;;;;;0.80;0.80;;;;;;;15.46;100.00;102388.03;5019471;28;20461;-79
2022/09/01 03:15:44;;;;;;;1.08;0.98;;;;;;;15.45;100.00;102387.16;4992918;28;20044;-78
2022/09/01 03:18:13;;;;;;;1.00;0.90;;;;;;;15.45;100.00;102386.28;4974461;28;20034;-78
2022/09/01 03:20:45;;;;;;;1.40;1.10;;;;;;;15.43;100.00;102383.59;5014309;28;20415;-77
2022/09/01 03:23:17;;;;;;;1.38;0.90;;;;;;;15.43;100.00;102386.25;4975448;28;20056;-77
2022/09/01 03:25:48;;;;;;;1.10;1.00;;;;;;;15.43;100.00;102388.91;5010104;28;20042;-77
2022/09/01 03:28:17;;;;;;;1.20;1.10;;;;;;;15.43;100.00;102380.94;4991675;28;20076;-78
2022/09/01 03:30:51;;;;;;;3.13;1.27;;;;;;;15.43;100.00;102380.06;4985214;28;20037;-78
2022/09/01 03:33:21;;;;;;;0.90;0.90;;;;;;;15.42;100.00;102384.47;5007964;28;20175;-78
2022/09/01 03:35:51;;;;;;;0.85;0.82;;;;;;;15.43;100.00;102383.59;5010071;28;20041;-77
2022/09/01 03:38:23;;;;;;;0.90;0.90;;;;;;;15.43;100.00;102380.94;4976559;28;20042;-77
2022/09/01 03:40:59;;;;;;;3.40;0.90;;;;;;;15.41;100.00;102382.69;4985237;28;20053;-79
2022/09/01 03:43:31;;;;;;;2.85;1.15;;;;;;;15.41;100.00;102377.38;4999851;28;20415;-78
2022/09/01 03:46:04;;;;;;;0.85;0.85;;;;;;;15.43;100.00;102378.28;5005278;28;20045;-78
2022/09/01 03:48:33;;;;;;;0.80;0.80;;;;;;;15.42;100.00;102371.19;4990082;28;20069;-78
2022/09/01 03:51:02;;;;;;;2.50;1.05;;;;;;;15.44;100.00;102365.88;5001965;28;20034;-78
2022/09/01 03:53:36;;;;;;;1.10;1.10;;;;;;;15.44;100.00;102369.41;4937534;28;20309;-78
2022/09/01 03:56:07;;;;;;;0.80;0.80;;;;;;;15.44;100.00;102374.72;4996657;28;20049;-78
2022/09/01 03:58:37;;;;;;;1.25;0.90;;;;;;;15.44;100.00;102371.19;5001829;28;20054;-77
2022/09/01 04:01:05;;;;;;;0.90;0.90;;;;;;;15.45;100.00;102375.66;4984589;28;20054;-79
2022/09/01 04:03:40;;;;;;;3.75;1.20;;;;;;;15.43;100.00;102370.31;5002908;28;20042;-77
2022/09/01 04:06:09;;;;;;;2.05;0.90;;;;;;;15.43;100.00;102369.44;4983004;28;20379;-78
2022/09/01 04:08:38;;;;;;;1.20;1.10;;;;;;;15.43;100.00;102370.31;4980394;28;20050;-78
2022/09/01 04:11:15;;;;;;;2.40;0.93;;;;;;;15.43;100.00;102377.41;5021416;28;20045;-79
2022/09/01 04:13:46;;;;;;;1.42;1.33;;;;;;;15.42;100.00;102375.63;5014936;28;20522;-77
2022/09/01 04:19:24;;;;;;;2.10;1.10;;;;;;;15.40;100.00;102368.50;5000592;28;20042;-79
2022/09/01 04:21:58;;;;;;;1.63;0.95;;;;;;;15.40;100.00;102378.25;4976584;28;20041;-79
2022/09/01 04:24:41;;;;;;;2.50;1.15;;;;;;;15.39;100.00;102374.72;4993390;28;20152;-78
2022/09/01 04:27:14;;;;;;;1.33;1.08;;;;;;;15.38;100.00;102372.03;5003605;28;20049;-79
2022/09/01 04:29:45;;;;;;;1.02;1.00;;;;;;;15.38;100.00;102369.38;5000485;28;20036;-78
2022/09/01 04:32:14;;;;;;;1.15;1.15;;;;;;;15.39;100.00;102371.19;4985875;28;20499;-78
2022/09/01 04:34:49;;;;;;;2.33;1.10;;;;;;;15.38;100.00;102366.72;5006274;28;20531;-79
2022/09/01 04:37:20;;;;;;;1.77;1.05;;;;;;;15.37;100.00;102371.16;4983101;28;20145;-77
2022/09/01 04:39:58;;;;;;;0.90;0.90;;;;;;;15.38;100.00;102369.38;4967777;28;20053;-79
2022/09/01 04:42:31;;;;;;;4.60;1.20;;;;;;;15.37;100.00;102370.28;4967451;28;20343;-79
2022/09/01 04:45:02;;;;;;;1.00;1.00;;;;;;;15.36;100.00;102366.72;4994629;28;20038;-78
2022/09/01 04:47:41;;;;;;;0.90;0.90;;;;;;;15.36;100.00;102366.72;4980818;28;20470;-78
2022/09/01 04:50:15;;;;;;;1.05;1.05;;;;;;;15.36;100.00;102374.69;4986880;28;20057;-78
2022/09/01 04:52:46;;;;;;;1.50;1.20;;;;;;;15.37;100.00;102362.31;4987190;28;20042;-77
2022/09/01 04:55:31;;;;;;;4.50;1.10;;;;;;;15.38;100.00;102366.72;4971687;28;20248;-79
2022/09/01 04:58:01;;;;;;;1.85;1.10;;;;;;;15.38;100.00;102364.94;4971587;28;20054;-79
2022/09/01 05:00:35;;;;;;;1.20;1.10;;;;;;;15.37;100.00;102368.50;5011216;28;20068;-78
2022/09/01 05:03:04;;;;;;;1.85;1.63;;;;;;;15.37;100.00;102371.16;4999081;28;20045;-78
2022/09/01 05:05:57;;;;;;;2.10;1.15;;;;;;;15.37;100.00;102368.50;4983273;28;20039;-77
2022/09/01 05:08:34;;;;;;;1.23;1.13;;;;;;;15.39;100.00;102376.50;4989661;28;20439;-77
2022/09/01 05:11:06;;;;;;;1.90;1.15;;;;;;;15.40;100.00;102373.81;4968007;28;20050;-78
2022/09/01 05:13:47;;;;;;;;;;;;;;;15.43;100.00;102372.09;5003203;28;20041;-77
2022/09/01 05:16:20;;;;;;;1.10;1.10;;;;;;;15.43;100.00;102378.28;5005411;28;20165;-78
2022/09/01 05:18:56;;;;;;;1.52;1.42;;;;;;;15.44;100.00;102372.06;4991108;28;20041;-78
2022/09/01 05:21:29;;;;;;;1.58;1.10;;;;;;;15.45;100.00;102375.66;4978421;28;20446;-78
2022/09/01 05:24:00;;;;;;;0.95;0.95;;;;;;;15.46;100.00;102372.97;4962698;28;20056;-78
2022/09/01 05:26:33;;;;;;;1.35;1.20;;;;;;;15.49;100.00;102383.63;5001206;28;20081;-78
2022/09/01 05:29:09;;;;;;;1.25;1.20;;;;;;;15.52;100.00;102375.69;4981038;28;20050;-79
2022/09/01 05:31:40;;;;;;;2.08;1.30;;;;;;;15.59;100.00;102388.16;4998451;28;20025;-78
2022/09/01 05:34:11;;;;;;;3.97;1.30;;;;;;;15.65;100.00;102375.75;5006363;28;20068;-78
2022/09/01 05:36:44;;;;;;;1.08;1.05;;;;;;;15.71;100.00;102376.72;4972990;28;20033;-78
2022/09/01 05:39:13;;;;;;;1.20;1.10;;;;;;;15.79;100.00;102382.09;4955188;28;20045;-78
2022/09/01 05:41:42;;;;;;;2.80;1.20;;;;;;;15.85;100.00;102371.50;4969832;28;20050;-77
2022/09/01 05:44:12;;;;;;;2.40;1.30;;;;;;;15.91;100.00;102376.84;4963639;28;20342;-77
2022/09/01 05:46:43;;;;;;;2.35;1.25;;;;;;;15.98;100.00;102375.13;4960117;28;20057;-78
2022/09/01 05:49:14;;;;;;;1.55;1.30;;;;;;;16.05;100.00;102376.03;4990066;28;20042;-78
2022/09/01 05:51:50;;;;;;;1.50;1.23;;;;;;;16.07;100.00;102374.28;4941600;28;20602;-77
2022/09/01 05:54:26;;;;;;;4.05;1.17;;;;;;;16.10;100.00;102376.94;4979346;28;20049;-78
2022/09/01 05:56:58;;;;;;;4.80;1.15;;;;;;;16.15;100.00;102380.50;4977709;28;20061;-76
2022/09/01 05:59:52;;;;;;;1.83;1.20;;;;;;;16.16;100.00;102377.88;4981283;28;20042;-78
2022/09/01 06:02:25;;;;;;;3.78;1.50;;;;;;;16.17;100.00;102381.41;5008375;28;20386;-77
2022/09/01 06:04:56;;;;;;;1.40;1.30;;;;;;;16.11;100.00;102381.38;4996906;28;20261;-77
2022/09/01 06:07:30;;;;;;;2.45;1.65;;;;;;;16.05;100.00;102376.94;4959382;28;20041;-78
2022/09/01 06:10:01;;;;;;;1.63;1.30;;;;;;;16.01;100.00;102380.47;4972811;28;20037;-77
2022/09/01 06:12:30;;;;;;;1.65;1.30;;;;;;;15.95;100.00;102383.97;4978077;28;20056;-78
2022/09/01 06:14:58;;;;;;;1.33;1.17;;;;;;;15.89;100.00;102386.56;4986782;28;20053;-77
2022/09/01 06:17:29;;;;;;;1.50;1.40;;;;;;;15.85;100.00;102391.88;4956725;28;20157;-76
2022/09/01 06:20:09;;;;;;;1.45;1.30;;;;;;;15.82;100.00;102386.53;4993090;28;20041;-78
2022/09/01 06:22:42;;;;;;;4.60;1.70;;;;;;;15.77;100.00;102394.50;4949176;28;20078;-77
2022/09/01 06:25:11;;;;;;;2.90;1.38;;;;;;;15.71;100.00;102389.13;4961472;28;20457;-78
2022/09/01 06:27:44;;;;;;;2.33;1.38;;;;;;;15.68;100.00;102395.28;4956164;28;20065;-78
2022/09/01 06:30:25;;;;;;;3.45;1.45;;;;;;;15.62;100.00;102397.03;4988893;28;20609;-77
2022/09/01 06:33:09;;;;;;;3.85;1.58;;;;;;;15.55;100.00;102394.31;4988504;28;20041;-77
2022/09/01 06:35:42;;;;;;;1.90;1.67;;;;;;;15.52;100.00;102406.66;4977758;28;20038;-77
2022/09/01 06:38:14;;;;;;;2.72;1.77;;;;;;;15.51;100.00;102404.91;4969951;28;20495;-78
2022/09/01 06:40:58;;;;;;;1.70;1.30;;;;;;;15.53;100.00;102403.16;4968809;28;20040;-77
2022/09/01 06:43:29;;;;;;;3.38;1.85;;;;;;;15.55;100.00;102404.03;5022767;28;20438;-77
2022/09/01 06:46:01;;;;;;;3.17;1.55;;;;;;;15.55;100.00;102399.63;4986306;28;20044;-78
2022/09/01 06:48:29;;;;;;;1.50;1.40;;;;;;;15.62;100.00;102410.31;5013916;28;20056;-77
2022/09/01 06:51:03;;;;;;;1.85;1.60;;;;;;;15.71;100.00;102415.69;4990791;28;20037;-77
2022/09/01 06:53:55;;;;;;;1.45;1.30;;;;;;;15.81;100.00;102417.56;5001995;28;20049;-78
2022/09/01 06:56:30;;;;;;;1.77;1.67;;;;;;;15.89;100.00;102415.81;4956534;28;20055;-79
2022/09/01 06:59:02;;;;;;;1.85;1.75;;;;;;;15.95;100.00;102405.25;5002790;28;20526;-77
2022/09/01 07:01:32;;;;;;;2.10;1.50;;;;;;;16.03;100.00;102415.94;4997857;28;20033;-78
2022/09/01 07:04:02;;;;;;;1.80;1.70;;;;;;;16.13;100.00;102416.84;4980656;28;20499;-77
2022/09/01 07:06:41;;;;;;;2.88;1.40;;;;;;;16.19;100.00;102419.53;4994957;28;20049;-77
2022/09/01 07:09:49;;;;;;;2.88;1.60;;;;;;;16.26;100.00;102426.66;5002126;28;20046;-78
2022/09/01 07:12:46;;;;;;;5.72;1.95;;;;;;;16.28;100.00;102427.56;5018471;28;20034;-77
2022/09/01 07:15:39;;;;;;;2.00;1.33;;;;;;;16.32;100.00;102426.69;5024440;28;20567;-77
2022/09/01 07:18:32;;;;;;;3.45;1.45;;;;;;;16.38;100.00;102425.84;5008204;28;20241;-77
2022/09/01 07:21:06;;;;;;;2.15;1.80;;;;;;;16.45;100.00;102432.06;5030711;28;20037;-78
2022/09/01 07:23:56;;;;;;;1.60;1.50;;;;;;;16.53;100.00;102427.66;4980545;28;20053;-78
2022/09/01 07:27:00;;;;;;;1.50;1.40;;;;;;;16.64;100.00;102431.25;4990021;28;20052;-78
2022/09/01 07:29:38;;;;;;;2.55;1.60;;;;;;;16.71;100.00;102426.81;4990997;28;20037;-78
2022/09/01 07:32:09;;;;;;;;;;;;;;;16.77;100.00;102435.72;4998622;28;20053;-79
2022/09/01 07:34:59;;;;;;;1.50;1.40;;;;;;;16.90;100.00;102427.78;5016934;28;20293;-77
2022/09/01 07:37:30;;;;;;;3.65;1.45;;;;;;;17.01;100.00;102433.13;4988436;28;20064;-77
2022/09/01 07:40:21;;;;;;;1.67;1.58;;;;;;;17.11;100.00;102424.28;4966469;28;20093;-77
2022/09/01 07:43:28;;;;;;;1.85;1.40;;;;;;;17.20;100.00;102429.63;4973387;28;20042;-77
2022/09/01 07:46:19;;;;;;;;;;;;;;;17.24;100.00;102417.19;5003042;28;20208;-77
2022/09/01 07:49:08;;;;;;;2.08;1.88;;;;;;;17.21;100.00;102419.84;5004890;28;19922;-77
2022/09/01 07:51:58;;;;;;;5.10;1.25;;;;;;;17.21;100.00;102426.06;5005018;28;20034;-78
2022/09/01 07:54:29;;;;;;;2.92;1.60;;;;;;;17.30;100.00;102426.06;4980217;28;20384;-78
2022/09/01 07:56:58;;;;;;;1.50;1.40;;;;;;;17.43;100.00;102420.72;4969344;28;20042;-78
2022/09/01 07:59:28;;;;;;;2.42;1.42;;;;;;;17.58;100.00;102426.09;4988694;28;20038;-78
2022/09/01 08:02:05;;;;;;;1.73;1.58;;;;;;;17.73;100.00;102419.81;4980049;28;20666;-76
2022/09/01 08:04:35;;;;;;;2.88;1.40;;;;;;;17.82;100.00;102418.91;4991841;28;20120;-77
2022/09/01 08:07:04;;;;;;;2.15;1.40;;;;;;;17.98;100.00;102422.50;5002348;28;20057;-78
2022/09/01 08:09:36;;;;;;;1.40;1.35;;;;;;;18.16;100.00;102427.75;4977991;28;20053;-77
2022/09/01 08:12:12;;;;;;;2.80;1.30;;;;;;;18.32;100.00;102431.28;4988968;28;20102;-78
2022/09/01 08:14:51;;;;;;;1.92;1.80;;;;;;;18.43;100.00;102425.88;5009277;28;20402;-78
2022/09/01 08:17:42;;;;;;;1.60;1.45;;;;;;;18.46;100.00;102424.06;5007094;28;20260;-77
2022/09/01 08:20:20;;;;;;;1.80;1.48;;;;;;;18.51;100.00;102430.28;4994471;28;20053;-78
2022/09/01 08:22:51;;;;;;;1.45;1.27;;;;;;;18.51;100.00;102426.75;4990744;28;20403;-77
2022/09/01 08:25:24;;;;;;;1.40;1.30;;;;;;;18.63;100.00;102428.44;4990586;28;20060;-78
2022/09/01 08:27:55;;;;;;;1.58;1.20;;;;;;;18.86;100.00;102423.00;4964247;28;20045;-77
2022/09/01 08:30:28;;;;;;;1.52;1.27;;;;;;;19.04;100.00;102422.88;4958100;28;20053;-78
2022/09/01 08:32:59;;;;;;;3.90;1.30;;;;;;;19.19;100.00;102421.00;5008720;28;20049;-78
2022/09/01 08:35:40;;;;;;;1.05;1.00;;;;;;;19.31;99.11;102426.25;4976585;28;20301;-77
2022/09/01 08:38:09;;;;;;;2.15;1.00;;;;;;;19.42;97.88;102426.16;4995749;28;20055;-77
2022/09/01 08:40:49;;;;;;;1.27;1.02;;;;;;;19.55;96.45;102421.59;4962845;28;20058;-77
2022/09/01 08:43:34;;;;;;;2.25;1.27;;;;;;;19.67;96.08;102414.31;4953633;28;20074;-78
2022/09/01 08:46:41;;;;;;;2.85;1.40;;;;;;;19.86;94.77;102412.38;4990823;28;20053;-78
2022/09/01 08:49:21;;;;;;;5.57;1.65;;;;;;;20.00;93.34;102419.38;4967719;28;20141;-79
2022/09/01 08:52:24;;;;;;;3.13;1.05;;;;;;;20.14;93.19;102420.09;5007677;28;20053;-79
2022/09/01 08:55:24;;;;;;;2.55;0.95;;;;;;;20.33;92.67;102425.25;4981819;28;20053;-78
2022/09/01 08:57:56;;;;;;;1.33;0.90;;;;;;;20.50;90.81;102423.22;4987152;28;20035;-79
2022/09/01 09:00:34;;;;;;;1.20;0.85;;;;;;;20.60;89.83;102421.34;4976205;28;20712;-79
2022/09/01 09:03:28;;;;;;;1.85;1.08;;;;;;;20.75;90.11;102422.91;4969632;28;20043;-79
2022/09/01 09:06:20;;;;;;;1.13;1.02;;;;;;;20.86;87.13;102423.66;5000011;28;20042;-79
2022/09/01 09:09:03;;;;;;;1.70;1.20;;;;;;;20.72;86.96;102418.50;4984285;28;20057;-78
2022/09/01 09:11:37;;;;;;;3.05;1.10;;;;;;;20.61;87.16;102407.94;4988691;28;20071;-76
2022/09/01 09:14:36;;;;;;;1.85;0.90;;;;;;;20.63;87.38;102411.47;5005186;28;20058;-77
2022/09/01 09:17:04;;;;;;;3.40;0.90;;;;;;;20.70;87.36;102412.28;4974208;28;20046;-77
2022/09/01 09:19:39;;;;;;;2.78;1.00;;;;;;;20.73;85.97;102417.59;4985458;28;20568;-78
2022/09/01 09:22:14;;;;;;;0.85;0.80;;;;;;;20.68;84.40;102421.22;4997440;28;20391;-78
2022/09/01 09:24:46;;;;;;;0.90;0.88;;;;;;;20.55;84.73;102405.31;4999096;28;20723;-77
2022/09/01 09:27:34;;;;;;;0.70;0.68;;;;;;;20.49;84.98;102404.50;4968267;28;20380;-78
2022/09/01 09:30:22;;;;;;;1.67;1.33;;;;;;;20.51;86.11;102400.91;4995623;28;20042;-76
2022/09/01 09:32:56;;;;;;;1.58;0.98;;;;;;;20.47;84.31;102404.50;4982196;28;20054;-77
2022/09/01 09:35:46;;;;;;;0.80;0.80;;;;;;;20.47;84.59;102400.97;4990034;28;20157;-77
2022/09/01 09:38:31;;;;;;;1.77;1.00;;;;;;;20.57;85.06;102397.25;4963633;28;20066;-78
2022/09/01 09:41:08;;;;;;;2.55;0.82;;;;;;;20.68;82.93;102402.47;4957497;28;20038;-77
2022/09/01 09:43:57;;;;;;;0.85;0.60;;;;;;;20.77;83.68;102392.50;4973244;28;20045;-82
2022/09/01 09:46:38;;;;;;;2.25;0.93;;;;;;;20.93;82.77;102398.53;4969222;28;20351;-77
2022/09/01 09:49:09;;;;;;;;;;;;;;;20.98;79.69;102398.47;4989225;28;20045;-77
2022/09/01 09:51:41;;;;;;;1.00;0.88;;;;;;;20.90;80.24;102398.56;4985093;28;19933;-77
2022/09/01 09:54:31;;;;;;;2.50;0.55;;;;;;;20.85;79.25;102403.16;4997021;28;20049;-78
2022/09/01 09:57:10;;;;;;;0.95;0.95;;;;;;;20.81;79.99;102393.34;5005196;28;20049;-77
2022/09/01 10:00:04;;;;;;;2.25;0.70;;;;;;;20.84;79.40;102386.16;4985239;28;20176;-76
2022/09/01 10:02:50;;;;;;;1.67;0.90;;;;;;;20.90;78.50;102397.69;4978961;28;20734;-77
2022/09/01 10:05:32;;;;;;;3.15;0.70;;;;;;;20.88;75.85;102392.34;5002301;28;20388;-76
2022/09/01 10:08:03;;;;;;;1.42;1.10;;;;;;;20.82;77.89;102400.50;5004824;28;20357;-79
2022/09/01 10:10:50;;;;;;;1.45;0.70;;;;;;;20.79;75.41;102390.72;4991882;28;20542;-74
2022/09/01 10:13:30;;;;;;;1.70;0.80;;;;;;;20.80;75.54;102380.88;4984587;28;20054;-73
2022/09/01 10:16:06;;;;;;;1.58;0.80;;;;;;;20.79;75.94;102377.34;4966677;28;20049;-74
2022/09/01 10:18:43;;;;;;;3.20;0.93;;;;;;;20.92;76.01;102377.13;5001481;28;20327;-74
2022/09/01 10:21:22;;;;;;;0.77;0.60;;;;;;;21.01;76.15;102375.19;5004316;28;20050;-74
2022/09/01 10:23:51;;;;;;;1.05;1.00;;;;;;;21.09;77.00;102376.84;4991408;28;20045;-74
2022/09/01 10:26:23;;;;;;;;;;;;;;;21.15;72.57;102376.75;5000596;28;20379;-74
2022/09/01 10:28:59;;;;;;;2.70;0.65;;;;;;;21.10;74.37;102370.59;4977064;28;19921;-75
2022/09/01 10:31:29;;;;;;;1.15;0.80;;;;;;;21.07;73.81;102365.28;4960930;28;20264;-74
2022/09/01 10:34:02;;;;;;;2.28;0.73;;;;;;;21.17;73.62;102361.50;5003696;28;20050;-74
2022/09/01 10:36:35;;;;;;;1.30;0.82;;;;;;;21.30;73.34;102359.50;4980453;28;20053;-74
2022/09/01 10:39:09;;;;;;;4.95;0.80;;;;;;;21.35;73.88;102361.19;4987398;28;20046;-75
2022/09/01 10:41:53;;;;;;;1.55;1.10;;;;;;;21.42;73.29;102357.50;5013530;28;20085;-73
2022/09/01 10:44:32;;;;;;;5.45;0.88;;;;;;;21.39;74.00;102351.31;4970901;28;20734;-76
2022/09/01 10:47:36;;;;;;;4.05;1.00;;;;;;;21.40;71.28;102359.34;4973779;28;20052;-74
2022/09/01 10:50:25;;;;;;;2.50;0.63;;;;;;;21.37;68.71;102351.34;5023072;28;20053;-75
2022/09/01 10:52:57;;;;;;;0.70;0.65;;;;;;;21.34;70.14;102347.81;4989975;28;20033;-73
2022/09/01 10:55:38;;;;;;;1.02;0.90;;;;;;;21.28;68.80;102348.81;4999486;28;20654;-74
2022/09/01 10:58:20;;;;;;;1.17;0.90;;;;;;;21.38;69.00;102346.88;4989520;28;20049;-73
2022/09/01 11:01:09;;;;;;;1.00;0.88;;;;;;;21.49;69.62;102349.38;4999309;28;20038;-73
2022/09/01 11:03:50;;;;;;;1.30;1.10;;;;;;;21.62;69.97;102348.22;4954834;28;20052;-73
2022/09/01 11:07:03;;;;;;;1.00;0.93;;;;;;;21.82;67.41;102334.44;5020519;28;20331;-73
2022/09/01 11:09:43;;;;;;;0.60;0.60;;;;;;;21.97;66.91;102344.84;5007422;28;20061;-73
2022/09/01 11:12:29;;;;;;;0.60;0.60;;;;;;;22.06;66.49;102333.03;5010542;28;20274;-73
2022/09/01 11:14:59;;;;;;;1.58;0.60;;;;;;;22.17;65.74;102333.69;4998773;28;20507;-74
2022/09/01 11:17:36;;;;;;;1.00;1.00;;;;;;;22.22;64.83;102330.03;5003137;28;20421;-74
2022/09/01 11:20:11;;;;;;;1.13;1.00;;;;;;;22.26;62.18;102334.44;4970630;28;20037;-75
2022/09/01 11:22:57;;;;;;;1.08;0.73;;;;;;;22.34;61.70;102337.81;5018364;28;20041;-74
2022/09/01 11:25:42;;;;;;;2.35;0.77;;;;;;;22.41;60.30;102334.09;5019194;28;20042;-74
2022/09/01 11:28:13;;;;;;;0.70;0.70;;;;;;;22.38;60.47;102334.13;4985991;28;20529;-75
2022/09/01 11:30:59;;;;;;;0.80;0.80;;;;;;;22.38;58.21;102331.47;5006720;28;20037;-76
2022/09/01 11:33:32;;;;;;;0.60;0.60;;;;;;;22.40;58.65;102337.72;5001368;28;20384;-73
2022/09/01 11:36:05;;;;;;;2.17;0.70;;;;;;;22.37;59.37;102333.25;4989754;28;20046;-73
2022/09/01 11:39:08;;;;;;;0.88;0.65;;;;;;;22.44;58.77;102325.06;5030119;28;20049;-74
2022/09/01 11:42:02;;;;;;;2.13;0.90;;;;;;;22.49;59.74;102329.41;5017496;28;20498;-75
2022/09/01 11:44:50;;;;;;;1.00;0.90;;;;;;;22.48;58.26;102322.28;5018188;28;20053;-74
2022/09/01 11:47:26;;;;;;;1.63;0.55;;;;;;;22.51;59.58;102318.63;4986233;28;20475;-75
2022/09/01 11:50:01;;;;;;;0.65;0.60;;;;;;;22.56;57.47;102324.78;4967675;28;20060;-73
2022/09/01 11:52:33;;;;;;;0.65;0.65;;;;;;;22.62;57.87;102311.19;5016062;28;20064;-73
2022/09/01 11:55:05;;;;;;;0.63;0.63;;;;;;;22.61;57.66;102319.28;5025958;28;20041;-75
2022/09/01 11:57:36;;;;;;;0.82;0.77;;;;;;;22.66;57.76;102317.38;5019684;28;20391;-74
2022/09/01 12:00:11;;;;;;;0.82;0.50;;;;;;;22.67;55.84;102314.69;5009185;28;20041;-73
2022/09/01 12:02:49;;;;;;;0.50;0.50;;;;;;;22.63;55.86;102312.06;5001089;28;20041;-73
2022/09/01 12:05:37;;;;;;;0.50;0.50;;;;;;;22.68;56.36;102305.69;4964617;28;20318;-75
2022/09/01 12:08:17;;;;;;;1.55;0.90;;;;;;;22.74;54.94;102312.69;5011843;28;20052;-73